Latest Weather Observations for Spitfire Channel

IDQ60801

Issued at 2:05 pm EST Monday 28 July 2014 (issued every 30 minutes, with the page automatically refreshed every 10 minutes)

About weather observations | Map of weather stations | Latest weather observations for QLD | Other Formats
Station Details ID: 040927 Name: SPITFIRE CHANNEL BEACON Lat: -27.05 Lon: 153.27 Height: 7.0 m
Data from the previous 72 hours. | See also: Recent months for locations in Queensland
Date/Time
EST
Temp
°C
App
Temp
°C
Dew
Point
Rel
Hum
%
Delta-T
°C
Wind Press
QNH
hPa
Press
MSL
hPa
Rain
since 9 am
mm
Dir
 
Spd
km/h
Gust
km/h
Spd
kts
Gust
kts
28/02:00pm - - - - - NE 11 13 6 7 - - -
28/01:30pm - - - - - ENE 9 11 5 6 - - -
28/01:00pm - - - - - E 9 13 5 7 - - -
28/12:30pm - - - - - E 11 13 6 7 - - -
28/12:00pm - - - - - SE 9 9 5 5 - - -
28/11:30am - - - - - SSE 7 9 4 5 - - -
28/11:00am - - - - - S 9 11 5 6 - - -
28/10:30am - - - - - S 9 11 5 6 - - -
28/10:00am - - - - - S 9 13 5 7 - - -
28/09:30am - - - - - S 9 11 5 6 - - -
28/09:00am - - - - - SSW 9 11 5 6 - - -
28/08:30am - - - - - SSW 9 13 5 7 - - -
28/08:00am - - - - - SW 11 13 6 7 - - -
28/07:30am - - - - - SSW 11 13 6 7 - - -
28/07:00am - - - - - S 11 15 6 8 - - -
28/06:30am - - - - - S 15 19 8 10 - - -
28/06:00am - - - - - S 17 19 9 10 - - -
28/05:30am - - - - - S 17 19 9 10 - - -
28/05:00am - - - - - S 13 17 7 9 - - -
28/04:30am - - - - - S 13 15 7 8 - - -
28/04:00am - - - - - SSW 15 17 8 9 - - -
28/03:30am - - - - - S 15 15 8 8 - - -
28/03:00am - - - - - S 13 15 7 8 - - -
28/02:30am - - - - - S 13 13 7 7 - - -
28/02:00am - - - - - S 13 13 7 7 - - -
28/01:30am - - - - - SSW 15 15 8 8 - - -
28/01:00am - - - - - SSW 15 17 8 9 - - -
28/12:30am - - - - - SSW 13 15 7 8 - - -
28/12:00am - - - - - SSW 11 13 6 7 - - -
 
Date/Time
EST
Temp
°C
App
Temp
°C
Dew
Point
Rel
Hum
%
Delta-T
°C
Wind Press
QNH
hPa
Press
MSL
hPa
Rain
since 9 am
mm
Dir
 
Spd
km/h
Gust
km/h
Spd
kts
Gust
kts
27/11:30pm - - - - - SSW 13 15 7 8 - - -
27/11:00pm - - - - - SW 11 13 6 7 - - -
27/10:30pm - - - - - SW 9 11 5 6 - - -
27/10:00pm - - - - - WSW 11 13 6 7 - - -
27/09:30pm - - - - - WSW 13 17 7 9 - - -
27/09:00pm - - - - - E 9 13 5 7 - - -
27/08:30pm - - - - - E 13 17 7 9 - - -
27/08:00pm - - - - - E 15 19 8 10 - - -
27/07:30pm - - - - - E 11 15 6 8 - - -
27/07:00pm - - - - - E 11 15 6 8 - - -
27/06:30pm - - - - - E 11 13 6 7 - - -
27/06:00pm - - - - - E 11 13 6 7 - - -
27/05:30pm - - - - - E 15 19 8 10 - - -
27/05:00pm - - - - - E 19 20 10 11 - - -
27/04:30pm - - - - - E 15 19 8 10 - - -
27/04:00pm - - - - - SE 11 11 6 6 - - -
27/03:30pm - - - - - ESE 19 20 10 11 - - -
27/03:00pm - - - - - ESE 17 19 9 10 - - -
27/02:30pm - - - - - SE 15 17 8 9 - - -
27/02:00pm - - - - - SE 19 22 10 12 - - -
27/01:30pm - - - - - SE 17 19 9 10 - - -
27/01:00pm - - - - - SE 15 19 8 10 - - -
27/12:30pm - - - - - SE 17 19 9 10 - - -
27/12:00pm - - - - - SE 17 19 9 10 - - -
27/11:30am - - - - - SE 13 15 7 8 - - -
27/11:00am - - - - - SSE 9 13 5 7 - - -
27/10:30am - - - - - SSW 15 17 8 9 - - -
27/10:00am - - - - - SSW 13 19 7 10 - - -
27/09:30am - - - - - SW 17 19 9 10 - - -
27/09:00am - - - - - SW 17 20 9 11 - - -
27/08:30am - - - - - SW 19 22 10 12 - - -
27/08:00am - - - - - W 9 13 5 7 - - -
27/07:30am - - - - - SW 17 19 9 10 - - -
27/07:00am - - - - - SW 15 20 8 11 - - -
27/06:30am - - - - - SSW 7 9 4 5 - - -
27/06:00am - - - - - WSW 4 6 2 3 - - -
27/05:30am - - - - - SSW 4 6 2 3 - - -
27/05:00am - - - - - SSW 4 6 2 3 - - -
27/04:30am - - - - - SSW 7 9 4 5 - - -
27/04:00am - - - - - WSW 11 11 6 6 - - -
27/03:30am - - - - - WSW 11 15 6 8 - - -
27/03:00am - - - - - W 9 11 5 6 - - -
27/02:30am - - - - - W 7 7 4 4 - - -
27/02:00am - - - - - W 9 11 5 6 - - -
27/01:30am - - - - - W 9 11 5 6 - - -
27/01:00am - - - - - W 7 9 4 5 - - -
27/12:30am - - - - - NW 9 11 5 6 - - -
27/12:00am - - - - - WNW 7 11 4 6 - - -
 
Date/Time
EST
Temp
°C
App
Temp
°C
Dew
Point
Rel
Hum
%
Delta-T
°C
Wind Press
QNH
hPa
Press
MSL
hPa
Rain
since 9 am
mm
Dir
 
Spd
km/h
Gust
km/h
Spd
kts
Gust
kts
26/11:30pm - - - - - NNW 9 13 5 7 - - -
26/11:00pm - - - - - WNW 6 7 3 4 - - -
26/10:30pm - - - - - W 7 9 4 5 - - -
26/10:00pm - - - - - W 7 11 4 6 - - -
26/09:30pm - - - - - WNW 4 6 2 3 - - -
26/09:00pm - - - - - WNW 9 9 5 5 - - -
26/08:30pm - - - - - W 13 15 7 8 - - -
26/08:00pm - - - - - WNW 13 15 7 8 - - -
26/07:30pm - - - - - WNW 13 17 7 9 - - -
26/07:00pm - - - - - N 11 13 6 7 - - -
26/06:30pm - - - - - N 9 9 5 5 - - -
26/06:00pm - - - - - N 13 13 7 7 - - -
26/05:30pm - - - - - N 13 15 7 8 - - -
26/05:00pm - - - - - NNE 11 11 6 6 - - -
26/04:30pm - - - - - N 11 13 6 7 - - -
26/04:00pm - - - - - NE 6 9 3 5 - - -
26/03:30pm - - - - - E 2 4 1 2 - - -
26/03:00pm - - - - - SSE 2 4 1 2 - - -
26/02:30pm - - - - - SSE 6 6 3 3 - - -
26/02:00pm - - - - - S 4 6 2 3 - - -
26/01:30pm - - - - - ENE 2 4 1 2 - - -
26/01:00pm - - - - - E 6 7 3 4 - - -
26/12:30pm - - - - - ESE 7 7 4 4 - - -
26/12:00pm - - - - - SSE 9 9 5 5 - - -
26/11:30am - - - - - S 15 17 8 9 - - -
26/11:00am - - - - - SSE 11 11 6 6 - - -
26/10:30am - - - - - SSE 7 9 4 5 - - -
26/10:00am - - - - - S 7 7 4 4 - - -
26/09:30am - - - - - S 9 9 5 5 - - -
26/09:00am - - - - - SSW 6 7 3 4 - - -
26/08:30am - - - - - S 7 9 4 5 - - -
26/08:00am - - - - - S 7 9 4 5 - - -
26/07:30am - - - - - SE 7 7 4 4 - - -
26/07:00am - - - - - S 7 7 4 4 - - -
26/06:30am - - - - - SSW 4 4 2 2 - - -
26/06:00am - - - - - SE 6 7 3 4 - - -
26/05:30am - - - - - SSE 4 6 2 3 - - -
26/05:00am - - - - - SSE 6 7 3 4 - - -
26/04:30am - - - - - SSW 2 4 1 2 - - -
26/04:00am - - - - - S 6 7 3 4 - - -
26/03:30am - - - - - SW 4 4 2 2 - - -
26/03:00am - - - - - SW 6 7 3 4 - - -
26/02:30am - - - - - SSW 4 4 2 2 - - -
26/02:00am - - - - - WSW 4 4 2 2 - - -
26/01:30am - - - - - W 4 4 2 2 - - -
26/01:00am - - - - - WSW 4 4 2 2 - - -
26/12:30am - - - - - WSW 4 4 2 2 - - -
26/12:00am - - - - - W 4 6 2 3 - - -
 
Date/Time
EST
Temp
°C
App
Temp
°C
Dew
Point
Rel
Hum
%
Delta-T
°C
Wind Press
QNH
hPa
Press
MSL
hPa
Rain
since 9 am
mm
Dir
 
Spd
km/h
Gust
km/h
Spd
kts
Gust
kts
25/11:30pm - - - - - W 7 9 4 5 - - -
25/11:00pm - - - - - N 13 13 7 7 - - -
25/10:30pm - - - - - N 11 15 6 8 - - -
25/10:00pm - - - - - N 13 15 7 8 - - -
25/09:30pm - - - - - N 15 17 8 9 - - -
25/09:00pm - - - - - N 15 15 8 8 - - -
25/08:30pm - - - - - N 17 20 9 11 - - -
25/08:00pm - - - - - N 17 19 9 10 - - -
25/07:30pm - - - - - N 19 22 10 12 - - -
25/07:00pm - - - - - N 19 22 10 12 - - -
25/06:30pm - - - - - N 17 19 9 10 - - -
25/06:00pm - - - - - N 15 17 8 9 - - -
25/05:30pm - - - - - N 7 7 4 4 - - -
25/05:00pm - - - - - NNE 7 9 4 5 - - -
25/04:30pm - - - - - NNE 7 9 4 5 - - -
25/04:00pm - - - - - NE 7 9 4 5 - - -
25/03:30pm - - - - - NE 7 7 4 4 - - -
25/03:00pm - - - - - NE 7 7 4 4 - - -
25/02:30pm - - - - - ENE 4 4 2 2 - - -

Other Formats:

Comma delimited format used in spreadsheet applications
http://www.bom.gov.au/fwo/IDQ60801/IDQ60801.94581.axf

JavaScript Object Notation format (JSON) in row-major order
http://www.bom.gov.au/fwo/IDQ60801/IDQ60801.94581.json